Time;durP1;ratioP1;P1;durP2;ratioP2;P2;SDS_P1;SDS_P2;PMS_P1;PMS_P2;Temp;Humidity;BMP_temperature;BMP_pressure;BME280_temperature;BME280_humidity;BME280_pressure;Samples;Min_cycle;Max_cycle;Signal;HPM_P1;HPM_P2
2024/01/07 00:00:16;;;;;;;1.30;1.08;;;3.20;99.90;;;;;;2047096;28;20187;-64
2024/01/07 00:01:16;;;;;;;1.42;1.30;;;3.30;99.90;;;;;;2047188;28;20237;-64
2024/01/07 00:02:19;;;;;;;1.87;1.30;;;3.20;99.90;;;;;;2046516;28;20322;-64
2024/01/07 00:03:20;;;;;;;1.80;1.30;;;3.20;99.90;;;;;;2038719;29;20186;-64
2024/01/07 00:04:20;;;;;;;1.50;1.27;;;3.20;99.90;;;;;;2046830;28;21310;-63
2024/01/07 00:05:21;;;;;;;2.00;1.50;;;3.30;99.90;;;;;;2047795;28;20266;-63
2024/01/07 00:06:22;;;;;;;2.20;1.80;;;3.30;99.90;;;;;;2046407;28;20253;-64
2024/01/07 00:07:23;;;;;;;1.67;1.20;;;3.20;99.90;;;;;;2046674;28;20239;-64
2024/01/07 00:08:23;;;;;;;1.17;1.07;;;3.20;99.90;;;;;;2047410;28;20332;-64
2024/01/07 00:09:24;;;;;;;1.40;1.03;;;3.20;99.90;;;;;;2047393;28;20237;-64
2024/01/07 00:10:25;;;;;;;1.27;1.07;;;3.20;99.90;;;;;;2046568;28;20363;-64
2024/01/07 00:11:26;;;;;;;1.30;1.20;;;3.20;99.90;;;;;;2046217;28;20698;-65
2024/01/07 00:12:26;;;;;;;1.60;1.30;;;3.10;99.90;;;;;;2044087;28;20222;-63
2024/01/07 00:13:27;;;;;;;1.37;1.13;;;3.10;99.90;;;;;;2045353;28;20693;-64
2024/01/07 00:14:27;;;;;;;2.17;1.47;;;3.20;99.90;;;;;;2047639;28;20220;-64
2024/01/07 00:15:28;;;;;;;1.30;1.13;;;3.30;99.90;;;;;;2047294;28;20234;-64
2024/01/07 00:16:29;;;;;;;1.40;1.13;;;3.30;99.90;;;;;;2047329;28;20230;-65
2024/01/07 00:17:29;;;;;;;1.20;1.10;;;3.30;99.90;;;;;;2047039;28;20219;-65
2024/01/07 00:18:30;;;;;;;1.50;1.20;;;3.40;99.90;;;;;;2047156;28;20219;-65
2024/01/07 00:19:31;;;;;;;1.03;0.90;;;3.40;99.90;;;;;;2046862;28;20712;-64
2024/01/07 00:20:32;;;;;;;1.45;1.00;;;3.40;99.90;;;;;;2046723;28;20605;-65
2024/01/07 00:21:32;;;;;;;1.50;1.00;;;3.40;99.90;;;;;;2046324;28;20230;-64
2024/01/07 00:22:33;;;;;;;1.83;0.97;;;3.40;99.90;;;;;;2046515;28;20223;-65
2024/01/07 00:23:34;;;;;;;1.10;1.00;;;3.30;99.90;;;;;;2054762;28;20246;-65
2024/01/07 00:24:34;;;;;;;1.10;0.83;;;3.30;99.90;;;;;;2054497;28;20221;-65
2024/01/07 00:25:35;;;;;;;1.40;1.10;;;3.30;99.90;;;;;;2046895;28;20226;-64
2024/01/07 00:26:36;;;;;;;1.67;0.90;;;3.20;99.90;;;;;;2046842;28;20211;-65
2024/01/07 00:27:36;;;;;;;1.30;1.20;;;3.20;99.90;;;;;;2043695;28;20278;-64
2024/01/07 00:28:37;;;;;;;1.27;1.00;;;3.20;99.90;;;;;;2054497;28;20714;-65
2024/01/07 00:29:38;;;;;;;1.13;1.03;;;3.20;99.90;;;;;;2053786;28;20218;-65
2024/01/07 00:30:38;;;;;;;1.10;1.00;;;3.10;99.90;;;;;;2044298;28;20227;-64
2024/01/07 00:31:39;;;;;;;0.97;0.90;;;3.10;99.90;;;;;;2045072;28;20219;-65
2024/01/07 00:32:40;;;;;;;1.73;1.30;;;3.10;99.90;;;;;;2046693;28;20276;-64
2024/01/07 00:33:40;;;;;;;1.30;1.00;;;3.20;99.90;;;;;;2046973;28;20695;-65
2024/01/07 00:34:41;;;;;;;1.27;1.10;;;3.10;99.90;;;;;;2036435;29;20230;-65
2024/01/07 00:35:42;;;;;;;0.87;0.80;;;3.10;99.90;;;;;;2027402;29;20232;-65
2024/01/07 00:36:42;;;;;;;1.30;1.20;;;3.10;99.90;;;;;;2043640;28;20623;-64
2024/01/07 00:37:43;;;;;;;1.43;1.03;;;3.10;99.90;;;;;;2042903;28;20286;-65
2024/01/07 00:38:45;;;;;;;1.37;1.10;;;3.10;99.90;;;;;;2044804;28;20783;-65
2024/01/07 00:39:45;;;;;;;1.35;1.20;;;3.10;99.90;;;;;;2046083;28;20223;-65
2024/01/07 00:40:46;;;;;;;1.47;1.23;;;3.20;99.90;;;;;;2046435;28;20333;-65
2024/01/07 00:41:47;;;;;;;1.30;1.10;;;3.20;99.90;;;;;;2053313;28;20318;-64
2024/01/07 00:42:47;;;;;;;1.53;1.30;;;3.10;99.90;;;;;;2044994;28;20700;-65
2024/01/07 00:43:48;;;;;;;1.83;1.13;;;3.20;99.90;;;;;;2036355;29;20266;-65
2024/01/07 00:44:49;;;;;;;1.40;1.20;;;3.20;99.90;;;;;;2044106;28;20276;-64
2024/01/07 00:45:49;;;;;;;2.00;1.60;;;3.10;99.90;;;;;;2043664;28;20224;-64
2024/01/07 00:46:50;;;;;;;1.50;1.20;;;3.20;99.90;;;;;;2043835;28;20226;-66
2024/01/07 00:47:52;;;;;;;3.20;1.70;;;3.20;99.90;;;;;;2043872;28;20234;-63
2024/01/07 00:48:52;;;;;;;1.60;1.30;;;3.10;99.90;;;;;;2045251;28;20226;-64
2024/01/07 00:49:53;;;;;;;1.83;1.57;;;3.00;99.90;;;;;;2046274;28;20223;-64
2024/01/07 00:50:55;;;;;;;2.17;1.80;;;3.00;99.90;;;;;;2045965;28;20227;-65
2024/01/07 00:51:55;;;;;;;2.50;2.03;;;3.00;99.90;;;;;;2037145;29;20228;-64
2024/01/07 00:52:56;;;;;;;2.17;1.70;;;3.00;99.90;;;;;;2044665;28;20604;-64
2024/01/07 00:53:57;;;;;;;2.13;1.50;;;2.90;99.90;;;;;;2045038;28;20221;-64
2024/01/07 00:54:57;;;;;;;2.87;2.10;;;3.00;99.90;;;;;;2044356;28;20224;-64
2024/01/07 00:55:58;;;;;;;2.00;1.70;;;3.00;99.90;;;;;;2044124;28;20235;-64
2024/01/07 00:56:59;;;;;;;2.63;1.93;;;3.00;99.90;;;;;;2043779;28;20696;-65
2024/01/07 00:57:59;;;;;;;3.43;1.87;;;3.00;99.90;;;;;;2043001;28;20601;-64
2024/01/07 00:59:01;;;;;;;2.40;1.83;;;3.00;99.90;;;;;;2037914;29;20322;-64
2024/01/07 01:00:06;;;;;;;3.58;2.10;;;3.00;99.90;;;;;;2045138;28;20219;-63
2024/01/07 01:01:06;;;;;;;2.42;1.80;;;3.10;99.90;;;;;;2043173;28;20187;-64
2024/01/07 01:02:07;;;;;;;3.10;2.30;;;3.10;99.90;;;;;;2045373;28;20605;-64
2024/01/07 01:03:08;;;;;;;2.87;2.00;;;3.00;99.90;;;;;;2045296;28;20214;-64
2024/01/07 01:04:08;;;;;;;2.53;2.17;;;3.10;99.90;;;;;;2045428;28;20558;-65
2024/01/07 01:05:09;;;;;;;4.67;2.20;;;3.00;99.90;;;;;;2044743;28;20214;-65
2024/01/07 01:06:09;;;;;;;2.50;2.00;;;3.00;99.90;;;;;;2047226;28;20168;-64
2024/01/07 01:07:10;;;;;;;2.57;1.70;;;3.00;99.90;;;;;;2046659;28;20184;-64
2024/01/07 01:08:11;;;;;;;2.63;2.17;;;2.90;99.90;;;;;;2043856;28;20179;-66
2024/01/07 01:09:12;;;;;;;3.10;2.23;;;3.00;99.90;;;;;;2043979;28;20196;-64
2024/01/07 01:10:16;;;;;;;2.28;1.77;;;3.00;99.90;;;;;;2043035;28;20195;-64
2024/01/07 01:11:17;;;;;;;4.65;2.75;;;2.90;99.90;;;;;;2038633;29;20195;-64
2024/01/07 01:12:18;;;;;;;2.70;2.03;;;3.00;99.90;;;;;;2039245;29;20224;-65
2024/01/07 01:13:18;;;;;;;2.43;1.90;;;2.90;99.90;;;;;;2046263;28;20226;-66
2024/01/07 01:14:19;;;;;;;3.53;2.50;;;2.90;99.90;;;;;;2046849;28;20282;-67
2024/01/07 01:15:20;;;;;;;3.97;2.87;;;2.90;99.90;;;;;;2044746;28;20206;-66
2024/01/07 01:16:21;;;;;;;4.35;2.88;;;2.90;99.90;;;;;;2036537;29;20275;-66
2024/01/07 01:17:21;;;;;;;3.33;2.53;;;2.90;99.90;;;;;;2036280;29;20809;-66
2024/01/07 01:18:22;;;;;;;3.10;2.50;;;2.90;99.90;;;;;;2046910;28;20246;-66
2024/01/07 01:19:24;;;;;;;4.03;2.70;;;2.90;99.90;;;;;;2046674;28;20274;-67
2024/01/07 01:20:25;;;;;;;3.05;2.20;;;2.90;99.90;;;;;;2047035;28;20882;-66
2024/01/07 01:21:25;;;;;;;4.00;2.17;;;2.90;99.90;;;;;;2046459;28;20302;-66
2024/01/07 01:22:26;;;;;;;3.17;2.13;;;2.90;99.90;;;;;;2046492;28;20242;-67
2024/01/07 01:23:27;;;;;;;3.37;2.80;;;3.00;99.90;;;;;;2037915;29;20235;-65
2024/01/07 01:24:27;;;;;;;3.00;2.10;;;3.00;99.90;;;;;;2045012;28;20229;-65
2024/01/07 01:25:29;;;;;;;3.43;2.73;;;3.00;99.90;;;;;;2044273;28;20312;-66
2024/01/07 01:26:30;;;;;;;3.47;2.33;;;3.00;99.90;;;;;;2044442;28;20330;-66
2024/01/07 01:27:31;;;;;;;3.07;2.20;;;2.90;99.90;;;;;;2043666;28;20839;-66
2024/01/07 01:28:31;;;;;;;3.97;2.70;;;2.90;99.90;;;;;;2043850;28;20358;-66
2024/01/07 01:29:32;;;;;;;3.83;2.60;;;2.90;99.90;;;;;;2042992;28;20272;-65
2024/01/07 01:30:32;;;;;;;3.80;2.50;;;2.90;99.90;;;;;;2043421;28;20601;-66
2024/01/07 01:31:33;;;;;;;4.33;3.10;;;2.90;99.90;;;;;;2044540;28;20249;-66
2024/01/07 01:32:34;;;;;;;3.47;2.60;;;2.80;99.90;;;;;;2045993;28;20262;-65
2024/01/07 01:33:34;;;;;;;4.03;2.80;;;2.80;99.90;;;;;;2046622;28;20245;-66
2024/01/07 01:34:36;;;;;;;5.13;3.00;;;2.80;99.90;;;;;;2039158;29;20274;-66
2024/01/07 01:35:36;;;;;;;4.03;3.17;;;2.80;99.90;;;;;;2045533;28;20235;-66
2024/01/07 01:36:37;;;;;;;3.97;3.13;;;2.80;99.90;;;;;;2044121;28;20633;-66
2024/01/07 01:37:38;;;;;;;3.43;2.60;;;2.80;99.90;;;;;;2046779;28;20281;-66
2024/01/07 01:38:38;;;;;;;3.87;3.07;;;2.80;99.90;;;;;;2043892;28;20259;-66
2024/01/07 01:39:41;;;;;;;4.57;3.33;;;2.80;99.90;;;;;;2043531;28;20250;-66
2024/01/07 01:40:41;;;;;;;3.85;2.88;;;2.80;99.90;;;;;;2043574;28;20222;-66
2024/01/07 01:41:42;;;;;;;4.27;3.40;;;2.80;99.90;;;;;;2037940;28;20238;-66
2024/01/07 01:42:43;;;;;;;4.23;3.10;;;2.80;99.90;;;;;;2045480;28;20698;-66
2024/01/07 01:43:44;;;;;;;5.28;3.67;;;2.80;99.90;;;;;;2045477;28;20230;-65
2024/01/07 01:44:46;;;;;;;4.63;3.20;;;2.80;99.90;;;;;;2037416;29;20326;-66
2024/01/07 01:45:47;;;;;;;6.65;4.57;;;2.80;99.90;;;;;;2045088;28;20226;-66
2024/01/07 01:46:48;;;;;;;4.20;2.77;;;2.80;99.90;;;;;;2035791;29;20689;-65
2024/01/07 01:47:49;;;;;;;6.17;3.23;;;2.80;99.90;;;;;;2035543;29;20363;-65
2024/01/07 01:48:50;;;;;;;5.28;3.58;;;2.80;99.90;;;;;;2043756;28;20228;-66
2024/01/07 01:49:51;;;;;;;5.28;3.50;;;2.70;99.90;;;;;;2042843;28;20226;-66
2024/01/07 01:50:57;;;;;;;6.28;3.78;;;2.80;99.90;;;;;;2036696;29;20230;-66
2024/01/07 01:51:58;;;;;;;6.38;3.40;;;2.90;99.90;;;;;;2046307;28;20652;-65
2024/01/07 01:52:59;;;;;;;5.10;4.00;;;2.90;99.90;;;;;;2045992;28;20292;-66
2024/01/07 01:54:01;;;;;;;5.73;3.93;;;3.00;99.90;;;;;;2045864;28;20230;-66
2024/01/07 01:55:02;;;;;;;5.03;3.60;;;3.00;99.90;;;;;;2035516;29;20414;-65
2024/01/07 01:56:03;;;;;;;5.45;4.00;;;3.10;99.90;;;;;;2036459;29;20195;-66
2024/01/07 01:57:05;;;;;;;5.60;3.50;;;3.10;99.90;;;;;;2036028;29;20197;-66
2024/01/07 01:58:08;;;;;;;5.85;3.60;;;3.10;99.90;;;;;;2035951;29;20193;-65
2024/01/07 01:59:09;;;;;;;6.32;4.63;;;3.10;99.90;;;;;;2034719;28;20212;-66
2024/01/07 02:00:11;;;;;;;5.07;3.63;;;3.10;99.90;;;;;;2035343;28;20279;-66
2024/01/07 02:01:12;;;;;;;5.90;4.13;;;3.10;99.90;;;;;;2045825;28;20219;-66
2024/01/07 02:02:14;;;;;;;6.53;4.07;;;3.10;99.90;;;;;;2046082;28;20190;-67
2024/01/07 02:03:14;;;;;;;4.80;3.17;;;3.00;99.90;;;;;;2045364;28;20191;-66
2024/01/07 02:04:15;;;;;;;5.73;4.00;;;3.00;99.90;;;;;;2037165;29;20641;-66
2024/01/07 02:05:16;;;;;;;5.53;3.55;;;2.90;99.90;;;;;;2036113;29;20582;-66
2024/01/07 02:06:17;;;;;;;6.33;3.80;;;3.00;99.90;;;;;;2044291;28;20183;-66
2024/01/07 02:07:18;;;;;;;6.10;4.00;;;3.00;99.90;;;;;;2046147;28;20186;-66
2024/01/07 02:08:19;;;;;;;5.13;3.63;;;3.00;99.90;;;;;;2046840;28;20429;-66
2024/01/07 02:09:20;;;;;;;5.90;3.80;;;3.00;99.90;;;;;;2042529;28;20209;-65
2024/01/07 02:10:21;;;;;;;5.17;3.60;;;2.90;99.90;;;;;;2042466;28;20249;-66
2024/01/07 02:11:22;;;;;;;5.00;3.97;;;2.90;99.90;;;;;;2042222;28;20285;-66
2024/01/07 02:12:23;;;;;;;5.55;3.60;;;2.80;99.90;;;;;;2046181;28;20253;-66
2024/01/07 02:13:24;;;;;;;5.63;3.93;;;2.90;99.90;;;;;;2045918;28;20242;-66
2024/01/07 02:14:24;;;;;;;4.97;3.87;;;2.90;99.90;;;;;;2044724;28;20320;-65
2024/01/07 02:15:25;;;;;;;5.70;3.90;;;2.90;99.90;;;;;;2044163;28;20246;-66
2024/01/07 02:16:26;;;;;;;6.13;4.30;;;2.90;99.90;;;;;;2032516;29;20238;-66
2024/01/07 02:17:27;;;;;;;6.23;4.60;;;2.90;99.90;;;;;;2022195;29;20241;-66
2024/01/07 02:18:27;;;;;;;6.65;4.35;;;3.10;99.90;;;;;;2036355;29;20231;-66
2024/01/07 02:19:28;;;;;;;4.27;3.23;;;3.00;99.90;;;;;;2042170;28;20603;-65
2024/01/07 02:20:29;;;;;;;4.73;3.67;;;3.00;99.90;;;;;;2043064;28;20238;-66
2024/01/07 02:21:29;;;;;;;4.47;3.50;;;3.00;99.90;;;;;;2042020;28;20237;-66
2024/01/07 02:22:30;;;;;;;3.63;2.93;;;2.90;99.90;;;;;;2029872;29;20255;-66
2024/01/07 02:23:31;;;;;;;5.03;3.70;;;2.90;99.90;;;;;;2028986;29;20252;-66
2024/01/07 02:24:32;;;;;;;5.10;3.60;;;2.90;99.90;;;;;;2034512;29;20306;-66
2024/01/07 02:25:36;;;;;;;4.38;3.28;;;2.90;99.90;;;;;;2043285;28;20229;-66
2024/01/07 02:26:37;;;;;;;4.55;3.28;;;2.90;99.90;;;;;;2036656;29;20230;-66
2024/01/07 02:27:38;;;;;;;4.87;3.43;;;2.80;99.90;;;;;;2027342;29;20220;-66
2024/01/07 02:28:38;;;;;;;4.93;3.47;;;2.80;99.90;;;;;;2043570;28;20231;-66
2024/01/07 02:29:39;;;;;;;4.00;3.17;;;2.70;99.90;;;;;;2043162;28;20222;-66
2024/01/07 02:30:40;;;;;;;4.23;3.30;;;2.80;99.90;;;;;;2042188;28;20230;-66
2024/01/07 02:31:40;;;;;;;5.37;3.70;;;2.70;99.90;;;;;;2033792;29;20613;-66
2024/01/07 02:32:41;;;;;;;4.33;3.47;;;2.80;99.90;;;;;;2034323;29;20282;-66
2024/01/07 02:33:42;;;;;;;5.00;3.13;;;2.80;99.90;;;;;;2037220;28;20252;-66
2024/01/07 02:34:43;;;;;;;4.90;3.90;;;2.90;99.90;;;;;;2023598;29;20228;-66
2024/01/07 02:35:44;;;;;;;5.50;3.53;;;2.90;99.90;;;;;;2033323;28;20229;-66
2024/01/07 02:36:45;;;;;;;7.23;3.63;;;2.90;99.90;;;;;;2044029;28;20604;-66
2024/01/07 02:37:45;;;;;;;4.30;3.27;;;2.90;99.90;;;;;;2043869;28;20225;-66
2024/01/07 02:38:46;;;;;;;4.13;3.03;;;2.90;99.90;;;;;;2043065;28;20227;-67
2024/01/07 02:39:47;;;;;;;4.60;3.53;;;2.90;99.90;;;;;;2043193;28;20608;-66
2024/01/07 02:40:47;;;;;;;4.70;3.57;;;3.00;99.90;;;;;;2042268;28;20225;-66
2024/01/07 02:41:49;;;;;;;4.27;3.33;;;3.00;99.90;;;;;;2041313;28;20222;-66
2024/01/07 02:42:50;;;;;;;5.28;3.78;;;3.10;99.90;;;;;;2035047;29;20588;-66
2024/01/07 02:43:51;;;;;;;4.77;3.47;;;3.00;99.90;;;;;;2042576;28;20235;-66
2024/01/07 02:44:51;;;;;;;4.30;3.37;;;3.00;99.90;;;;;;2044815;28;20281;-66
2024/01/07 02:45:52;;;;;;;4.27;3.00;;;3.00;99.90;;;;;;2036472;29;20707;-66
2024/01/07 02:46:53;;;;;;;5.83;4.10;;;3.00;99.90;;;;;;2044285;28;20230;-65
2024/01/07 02:47:53;;;;;;;3.60;3.23;;;3.10;99.90;;;;;;2043584;28;20219;-66
2024/01/07 02:48:54;;;;;;;4.57;3.60;;;3.10;99.90;;;;;;2042901;28;20293;-67
2024/01/07 02:49:55;;;;;;;4.57;3.20;;;3.20;99.90;;;;;;2043422;28;20242;-66
2024/01/07 02:50:56;;;;;;;4.83;3.30;;;3.10;99.90;;;;;;2042405;28;20559;-66
2024/01/07 02:51:56;;;;;;;3.33;2.70;;;3.10;99.90;;;;;;2042027;28;20285;-66
2024/01/07 02:52:57;;;;;;;4.57;3.20;;;3.10;99.90;;;;;;2044642;28;20628;-66
2024/01/07 02:53:58;;;;;;;5.40;3.40;;;3.10;99.90;;;;;;2046649;28;20230;-66
2024/01/07 02:55:01;;;;;;;5.77;4.00;;;3.10;99.90;;;;;;2044215;28;20746;-67
2024/01/07 02:56:02;;;;;;;3.60;2.95;;;3.10;99.90;;;;;;2044013;28;20273;-65
2024/01/07 02:57:03;;;;;;;4.30;3.27;;;3.10;99.90;;;;;;2051329;28;20191;-67
2024/01/07 02:58:03;;;;;;;4.40;3.10;;;3.00;99.90;;;;;;2045124;28;20183;-66
2024/01/07 02:59:04;;;;;;;4.87;3.33;;;2.90;99.90;;;;;;2042762;28;20593;-67
2024/01/07 03:00:06;;;;;;;4.40;3.53;;;3.00;99.90;;;;;;2034566;29;20179;-66
2024/01/07 03:01:09;;;;;;;4.05;3.05;;;3.00;99.90;;;;;;2037958;29;20184;-66
2024/01/07 03:02:10;;;;;;;4.57;3.47;;;3.00;99.90;;;;;;2037761;28;20297;-66
2024/01/07 03:03:11;;;;;;;4.90;3.97;;;3.00;99.90;;;;;;2042030;28;20729;-66
2024/01/07 03:04:14;;;;;;;6.20;4.37;;;2.90;99.90;;;;;;2045658;28;20269;-66
2024/01/07 03:05:15;;;;;;;4.07;3.55;;;3.00;99.90;;;;;;2037210;29;20584;-66
2024/01/07 03:06:16;;;;;;;5.13;3.63;;;3.00;99.90;;;;;;2034484;29;20280;-67
2024/01/07 03:07:17;;;;;;;3.90;3.03;;;3.00;99.90;;;;;;2036945;29;20188;-66
2024/01/07 03:08:18;;;;;;;4.88;3.47;;;3.00;99.90;;;;;;2045688;28;20265;-66
2024/01/07 03:09:19;;;;;;;4.68;3.40;;;3.00;99.90;;;;;;2043709;28;20234;-66
2024/01/07 03:10:19;;;;;;;5.30;3.30;;;3.00;99.90;;;;;;2051227;28;20609;-66
2024/01/07 03:11:20;;;;;;;4.40;3.00;;;3.00;99.90;;;;;;2050377;28;30784;-66
2024/01/07 03:12:21;;;;;;;6.37;3.80;;;3.00;99.90;;;;;;2042377;28;20247;-65
2024/01/07 03:13:22;;;;;;;4.53;3.50;;;3.00;99.90;;;;;;2042252;28;20325;-66
2024/01/07 03:14:23;;;;;;;4.10;3.27;;;3.00;99.90;;;;;;2044876;28;20326;-66
2024/01/07 03:15:23;;;;;;;4.68;3.25;;;3.00;99.90;;;;;;2044344;28;20358;-66
2024/01/07 03:16:26;;;;;;;6.67;3.63;;;2.90;99.90;;;;;;2036120;29;20247;-66
2024/01/07 03:17:27;;;;;;;5.57;3.80;;;2.90;99.90;;;;;;2036296;29;20240;-67
2024/01/07 03:18:29;;;;;;;3.90;2.97;;;2.90;99.90;;;;;;2036158;29;20302;-66
2024/01/07 03:19:30;;;;;;;4.75;3.25;;;2.80;99.90;;;;;;2035433;29;20249;-65
2024/01/07 03:20:30;;;;;;;3.50;3.00;;;2.70;99.90;;;;;;2042643;28;20230;-66
2024/01/07 03:21:31;;;;;;;4.40;3.33;;;2.70;99.90;;;;;;2043165;28;20246;-65
2024/01/07 03:22:32;;;;;;;6.73;3.87;;;2.80;99.90;;;;;;2042569;28;20226;-65
2024/01/07 03:23:32;;;;;;;5.10;3.73;;;2.90;99.90;;;;;;2041317;28;20228;-66
2024/01/07 03:24:33;;;;;;;3.47;3.17;;;2.90;99.90;;;;;;2045164;28;20231;-67
2024/01/07 03:25:34;;;;;;;4.23;3.03;;;3.00;99.90;;;;;;2041823;28;20373;-66
2024/01/07 03:26:35;;;;;;;3.73;3.10;;;3.00;99.90;;;;;;2046251;28;20587;-66
2024/01/07 03:27:36;;;;;;;5.15;3.20;;;3.00;99.90;;;;;;2046004;28;20226;-66
2024/01/07 03:28:37;;;;;;;5.30;3.17;;;3.10;99.90;;;;;;2037561;28;20238;-66
2024/01/07 03:29:38;;;;;;;4.50;3.20;;;3.10;99.90;;;;;;2043435;28;20305;-66
2024/01/07 03:30:38;;;;;;;3.80;2.97;;;3.10;99.90;;;;;;2044256;28;20226;-66
2024/01/07 03:31:39;;;;;;;3.90;3.13;;;3.00;99.90;;;;;;2042839;28;20907;-67
2024/01/07 03:32:39;;;;;;;3.77;3.17;;;3.10;99.90;;;;;;2036190;29;20318;-65
2024/01/07 03:33:42;;;;;;;5.20;3.50;;;3.10;99.90;;;;;;2032757;29;20231;-66
2024/01/07 03:34:43;;;;;;;3.83;2.90;;;3.10;99.90;;;;;;2041646;28;20313;-66
2024/01/07 03:35:44;;;;;;;5.03;3.20;;;3.10;99.90;;;;;;2051447;28;20698;-66
2024/01/07 03:36:45;;;;;;;4.13;3.05;;;3.10;99.90;;;;;;2044490;28;20635;-66
2024/01/07 03:37:46;;;;;;;3.97;3.10;;;3.10;99.90;;;;;;2044893;28;20235;-66
2024/01/07 03:38:47;;;;;;;4.03;3.07;;;3.00;99.90;;;;;;2042438;28;20264;-66
2024/01/07 03:39:47;;;;;;;4.10;3.00;;;3.00;99.90;;;;;;2042580;28;20755;-66
2024/01/07 03:40:48;;;;;;;3.83;3.43;;;3.00;99.90;;;;;;2044919;28;20222;-66
2024/01/07 03:41:49;;;;;;;4.23;3.37;;;3.00;99.90;;;;;;2041576;28;20230;-66
2024/01/07 03:42:49;;;;;;;3.60;2.73;;;3.00;99.90;;;;;;2033141;29;20228;-66
2024/01/07 03:43:50;;;;;;;4.80;3.10;;;2.90;99.90;;;;;;2041993;28;20754;-66
2024/01/07 03:44:51;;;;;;;3.97;2.97;;;2.80;99.90;;;;;;2043390;28;20724;-66
2024/01/07 03:45:51;;;;;;;4.07;3.33;;;2.80;99.90;;;;;;2045509;28;20230;-66
2024/01/07 03:46:52;;;;;;;3.53;2.77;;;2.70;99.90;;;;;;2046146;28;20223;-66
2024/01/07 03:47:53;;;;;;;5.47;3.57;;;2.70;99.90;;;;;;2045951;28;20231;-66
2024/01/07 03:48:53;;;;;;;4.23;2.93;;;2.80;99.90;;;;;;2044782;28;20268;-66
2024/01/07 03:49:54;;;;;;;4.53;3.47;;;2.80;99.90;;;;;;2045736;28;20719;-66
2024/01/07 03:50:55;;;;;;;3.73;2.83;;;2.90;99.90;;;;;;2044401;28;20302;-66
2024/01/07 03:51:56;;;;;;;3.57;3.00;;;2.90;99.90;;;;;;2043131;28;20703;-66
2024/01/07 03:52:56;;;;;;;4.30;3.00;;;2.90;99.90;;;;;;2035167;29;20223;-66
2024/01/07 03:53:57;;;;;;;4.83;3.30;;;2.90;99.90;;;;;;2034940;29;20247;-66
2024/01/07 03:54:57;;;;;;;3.47;2.90;;;2.90;99.90;;;;;;2041371;28;20398;-66
2024/01/07 03:55:58;;;;;;;4.57;3.17;;;2.80;99.90;;;;;;2045615;28;20226;-66
2024/01/07 03:56:59;;;;;;;5.03;3.67;;;2.80;99.90;;;;;;2046467;28;20272;-66
2024/01/07 03:57:59;;;;;;;4.40;3.17;;;2.80;99.90;;;;;;2046140;28;20216;-66
2024/01/07 03:59:00;;;;;;;4.80;3.37;;;2.80;99.90;;;;;;2045337;28;20239;-66
2024/01/07 04:00:01;;;;;;;4.13;3.13;;;2.90;99.90;;;;;;2044627;28;20222;-66
2024/01/07 04:01:01;;;;;;;4.87;3.50;;;2.90;99.90;;;;;;2044249;28;20270;-66
2024/01/07 04:02:02;;;;;;;4.03;2.97;;;2.80;99.90;;;;;;2036322;29;20184;-66
2024/01/07 04:03:03;;;;;;;3.63;2.80;;;2.80;99.90;;;;;;2034388;29;20727;-66
2024/01/07 04:04:04;;;;;;;5.03;3.08;;;2.80;99.90;;;;;;2042613;28;20520;-66
2024/01/07 04:05:05;;;;;;;3.53;2.57;;;2.80;99.90;;;;;;2034797;29;20256;-66
2024/01/07 04:06:07;;;;;;;5.27;3.20;;;2.80;99.90;;;;;;2030414;29;20191;-67
2024/01/07 04:07:08;;;;;;;4.90;3.50;;;2.80;99.90;;;;;;2045675;28;20176;-66
2024/01/07 04:08:12;;;;;;;5.13;3.60;;;2.90;99.90;;;;;;2045057;28;20259;-66
2024/01/07 04:09:13;;;;;;;4.53;3.30;;;2.90;99.90;;;;;;2040921;28;20278;-66
2024/01/07 04:10:16;;;;;;;3.73;2.97;;;2.90;99.90;;;;;;2045585;28;20565;-66
2024/01/07 04:11:16;;;;;;;3.97;3.17;;;2.90;99.90;;;;;;2046656;28;20333;-66
2024/01/07 04:12:17;;;;;;;4.17;3.00;;;2.90;99.90;;;;;;2046398;28;20672;-66
2024/01/07 04:13:18;;;;;;;3.50;2.60;;;2.80;99.90;;;;;;2043835;28;20258;-66
2024/01/07 04:14:18;;;;;;;3.10;2.40;;;2.90;99.90;;;;;;2043729;28;20215;-66
2024/01/07 04:15:20;;;;;;;3.67;2.83;;;2.80;99.90;;;;;;2043532;28;20211;-66
2024/01/07 04:16:21;;;;;;;3.40;2.90;;;2.90;99.90;;;;;;2046468;28;20969;-66
2024/01/07 04:17:23;;;;;;;4.80;3.27;;;2.90;99.90;;;;;;2047339;28;20234;-66
2024/01/07 04:18:24;;;;;;;2.97;2.40;;;2.90;99.90;;;;;;2045324;28;20721;-66
2024/01/07 04:19:24;;;;;;;3.87;2.80;;;2.90;99.90;;;;;;2045057;28;20243;-66
2024/01/07 04:20:25;;;;;;;3.20;2.30;;;2.90;99.90;;;;;;2045498;28;20635;-66
2024/01/07 04:21:26;;;;;;;4.27;2.83;;;2.90;99.90;;;;;;2045124;28;20235;-66
2024/01/07 04:22:26;;;;;;;3.83;2.90;;;2.90;99.90;;;;;;2043891;28;20242;-65
2024/01/07 04:23:28;;;;;;;5.43;3.67;;;2.90;99.90;;;;;;2043829;28;20289;-67
2024/01/07 04:24:28;;;;;;;3.30;2.60;;;3.00;99.90;;;;;;2043031;28;20235;-66
2024/01/07 04:25:29;;;;;;;3.20;2.50;;;3.00;99.90;;;;;;2042717;28;20242;-66
2024/01/07 04:26:30;;;;;;;3.70;3.00;;;2.90;99.90;;;;;;2042495;28;20278;-66
2024/01/07 04:27:30;;;;;;;2.83;2.53;;;2.90;99.90;;;;;;2045613;28;20230;-65
2024/01/07 04:28:31;;;;;;;4.03;2.80;;;2.90;99.90;;;;;;2045272;28;20333;-66
2024/01/07 04:29:32;;;;;;;3.60;3.10;;;2.90;99.90;;;;;;2037397;29;20231;-66
2024/01/07 04:30:32;;;;;;;3.03;2.40;;;2.90;99.90;;;;;;2036815;29;20653;-66
2024/01/07 04:31:33;;;;;;;2.87;2.30;;;2.90;99.90;;;;;;2044509;28;20664;-65
2024/01/07 04:32:34;;;;;;;3.17;2.23;;;2.90;99.90;;;;;;2043566;28;20224;-66
2024/01/07 04:33:34;;;;;;;3.30;2.50;;;2.90;99.90;;;;;;2043772;28;20224;-66
2024/01/07 04:34:35;;;;;;;3.47;2.57;;;2.90;99.90;;;;;;2042948;28;20234;-66
2024/01/07 04:35:36;;;;;;;3.97;2.93;;;2.90;99.90;;;;;;2042445;28;20752;-66
2024/01/07 04:36:37;;;;;;;4.18;3.10;;;2.90;99.90;;;;;;2043509;28;20637;-66
2024/01/07 04:37:38;;;;;;;3.33;2.53;;;2.90;99.90;;;;;;2046089;28;20257;-66
2024/01/07 04:38:39;;;;;;;4.00;2.72;;;2.90;99.90;;;;;;2045395;28;20638;-65
2024/01/07 04:39:39;;;;;;;3.17;2.17;;;2.80;99.90;;;;;;2047371;28;20226;-66
2024/01/07 04:40:40;;;;;;;3.13;2.43;;;2.80;99.90;;;;;;2049081;28;20219;-66
2024/01/07 04:41:41;;;;;;;3.13;2.30;;;2.80;99.90;;;;;;2044510;28;20235;-66
2024/01/07 04:42:41;;;;;;;2.93;2.13;;;2.80;99.90;;;;;;2043943;28;20215;-66
2024/01/07 04:43:43;;;;;;;3.10;2.13;;;2.70;99.90;;;;;;2044588;28;20223;-66
2024/01/07 04:44:44;;;;;;;3.30;2.58;;;2.80;99.90;;;;;;2043679;28;20227;-66
2024/01/07 04:45:44;;;;;;;2.90;2.40;;;2.70;99.90;;;;;;2042909;28;20219;-66
2024/01/07 04:46:47;;;;;;;3.17;2.23;;;2.70;99.90;;;;;;2043830;28;20310;-66
2024/01/07 04:47:48;;;;;;;3.47;2.58;;;2.70;99.90;;;;;;2030906;29;20220;-66
2024/01/07 04:48:48;;;;;;;2.83;2.27;;;2.70;99.90;;;;;;2045602;28;20801;-66
2024/01/07 04:49:49;;;;;;;2.83;2.23;;;2.70;99.90;;;;;;2046550;28;20269;-65
2024/01/07 04:50:50;;;;;;;3.07;2.40;;;2.70;99.90;;;;;;2045594;28;20323;-66
2024/01/07 04:51:51;;;;;;;2.92;2.50;;;2.70;99.90;;;;;;2044711;28;20227;-66
2024/01/07 04:52:51;;;;;;;3.10;2.50;;;2.50;99.90;;;;;;2044473;28;20223;-66
2024/01/07 04:53:52;;;;;;;4.17;3.00;;;2.40;99.90;;;;;;2045273;28;20223;-66
2024/01/07 04:54:54;;;;;;;3.67;2.50;;;2.40;99.90;;;;;;2045327;28;20277;-66
2024/01/07 04:55:55;;;;;;;3.55;2.63;;;2.40;99.90;;;;;;2026836;29;20228;-65
2024/01/07 04:56:55;;;;;;;3.77;2.63;;;2.50;99.90;;;;;;2034281;29;20323;-66
2024/01/07 04:57:56;;;;;;;2.90;2.20;;;2.50;99.90;;;;;;2044714;28;20314;-66
2024/01/07 04:58:57;;;;;;;3.33;2.43;;;2.50;99.90;;;;;;2042217;28;20219;-66
2024/01/07 04:59:57;;;;;;;4.20;2.60;;;2.50;99.90;;;;;;2040733;28;20222;-66
2024/01/07 05:00:58;;;;;;;3.07;2.40;;;2.60;99.90;;;;;;2036271;29;20235;-66
2024/01/07 05:01:59;;;;;;;3.30;2.57;;;2.60;99.90;;;;;;2027689;29;20224;-66
2024/01/07 05:02:59;;;;;;;4.70;3.07;;;2.60;99.90;;;;;;2035408;29;20228;-66
2024/01/07 05:04:00;;;;;;;2.73;2.10;;;2.60;99.90;;;;;;2043868;28;20648;-66
2024/01/07 05:05:01;;;;;;;3.10;2.53;;;2.60;99.90;;;;;;2042025;28;20223;-65
2024/01/07 05:06:02;;;;;;;3.23;2.27;;;2.60;99.90;;;;;;2021698;29;20258;-66
2024/01/07 05:07:03;;;;;;;2.83;2.43;;;2.60;99.90;;;;;;2033224;29;20184;-66
2024/01/07 05:08:04;;;;;;;3.03;2.15;;;2.50;99.90;;;;;;2045119;28;20194;-66
2024/01/07 05:09:05;;;;;;;3.00;2.15;;;2.60;99.90;;;;;;2045460;28;20914;-66
2024/01/07 05:10:06;;;;;;;2.57;1.70;;;2.50;99.90;;;;;;2045338;28;20311;-66
2024/01/07 05:11:07;;;;;;;2.40;1.88;;;2.60;99.90;;;;;;2044240;28;20633;-65
2024/01/07 05:12:08;;;;;;;2.22;1.73;;;2.60;99.90;;;;;;2036837;29;20230;-66
2024/01/07 05:13:09;;;;;;;2.80;2.10;;;2.60;99.90;;;;;;2042973;28;20342;-67
2024/01/07 05:14:11;;;;;;;2.53;1.90;;;2.50;99.90;;;;;;2043313;28;20192;-66
2024/01/07 05:15:12;;;;;;;2.17;1.65;;;2.60;99.90;;;;;;2041796;28;20290;-66
2024/01/07 05:16:20;;;;;;;2.83;1.97;;;2.60;99.90;;;;;;2042242;28;20683;-66
2024/01/07 05:17:20;;;;;;;2.83;2.15;;;2.50;99.90;;;;;;2039647;29;20391;-66
2024/01/07 05:18:22;;;;;;;3.43;2.67;;;2.50;99.90;;;;;;2038810;29;20246;-65
2024/01/07 05:19:23;;;;;;;3.00;2.35;;;2.50;99.90;;;;;;2037761;29;20709;-66
2024/01/07 05:20:23;;;;;;;3.20;2.90;;;2.60;99.90;;;;;;2036280;29;20242;-66
2024/01/07 05:21:24;;;;;;;3.10;2.47;;;2.50;99.90;;;;;;2045802;28;20644;-66